createdAt,value
2023-01-20T00:00:48.923Z,20.3
2023-01-20T00:05:56.051Z,20.3
2023-01-20T00:11:18.977Z,20.3
2023-01-20T00:16:41.697Z,20.2
2023-01-20T00:21:47.980Z,20.3
2023-01-20T00:26:55.917Z,20.2
2023-01-20T00:31:46.720Z,20.1
2023-01-20T00:36:38.564Z,20.2
2023-01-20T00:41:29.512Z,20.1
2023-01-20T00:46:37.548Z,20.1
2023-01-20T00:51:44.825Z,20.1
2023-01-20T00:56:35.357Z,20.1
2023-01-20T01:00:55.712Z,20.1
2023-01-20T01:05:48.562Z,20.1
2023-01-20T01:10:55.521Z,20.1
2023-01-20T01:16:17.989Z,20.1
2023-01-20T01:21:25.182Z,20.1
2023-01-20T01:26:00.930Z,20
2023-01-20T01:30:51.616Z,20
2023-01-20T01:36:14.158Z,19.9
2023-01-20T01:41:45.444Z,19.9
2023-01-20T01:47:08.646Z,19.9
2023-01-20T01:52:15.906Z,19.9
2023-01-20T01:57:23.528Z,19.9
2023-01-20T02:02:33.681Z,19.8
2023-01-20T02:07:39.718Z,19.8
2023-01-20T02:13:02.545Z,19.8
2023-01-20T02:18:09.446Z,20.1
2023-01-20T02:23:16.836Z,20.6
2023-01-20T02:28:40.466Z,21.3
2023-01-20T02:34:03.109Z,22.1
2023-01-20T02:39:27.167Z,23.1
2023-01-20T02:44:50.239Z,24
2023-01-20T02:50:03.810Z,24.9
2023-01-20T02:55:09.999Z,25.9
2023-01-20T03:00:33.207Z,26.7
2023-01-20T03:05:25.572Z,27.5
2023-01-20T03:10:01.527Z,28.1
2023-01-20T03:15:23.012Z,28.8
2023-01-20T03:20:46.439Z,29.3
2023-01-20T03:25:53.069Z,29.8
2023-01-20T03:30:59.883Z,30.2
2023-01-20T03:35:05.412Z,30.6
2023-01-20T03:40:28.164Z,30.8
2023-01-20T03:45:35.243Z,31
2023-01-20T03:50:57.597Z,31.2
2023-01-20T03:56:44.083Z,31.3
2023-01-20T04:02:22.307Z,31.4
2023-01-20T04:07:46.060Z,31.5
2023-01-20T04:12:56.556Z,31.6
2023-01-20T04:17:47.871Z,31.6
2023-01-20T04:23:10.066Z,31.6
2023-01-20T04:28:32.595Z,31.7
2023-01-20T04:34:10.737Z,31.7
2023-01-20T04:39:32.680Z,31.8
2023-01-20T04:44:24.040Z,31.8
2023-01-20T04:49:46.628Z,31.8
2023-01-20T04:55:12.417Z,31.8
2023-01-20T05:00:04.170Z,31.8
2023-01-20T05:05:27.603Z,31.8
2023-01-20T05:10:34.906Z,31.8
2023-01-20T05:15:57.777Z,31.8
2023-01-20T05:21:05.095Z,31.8
2023-01-20T05:26:12.050Z,31.8
2023-01-20T05:31:20.162Z,31.8
2023-01-20T05:36:29.983Z,31.8
2023-01-20T05:41:06.337Z,31.8
2023-01-20T05:46:13.103Z,31.8
2023-01-20T05:51:34.871Z,31.8
2023-01-20T05:56:42.042Z,31.8
2023-01-20T06:01:48.947Z,31.7
2023-01-20T06:06:56.631Z,31.7
2023-01-20T06:12:03.602Z,31.7
2023-01-20T06:17:13.294Z,31.7
2023-01-20T06:22:20.687Z,31.6
2023-01-20T06:27:30.303Z,31.6
2023-01-20T06:32:22.314Z,31.6
2023-01-20T06:37:29.399Z,31.6
2023-01-20T06:42:36.309Z,31.6
2023-01-20T06:47:59.213Z,31.6
2023-01-20T06:53:21.751Z,31.5
2023-01-20T06:58:44.635Z,31.5
2023-01-20T07:04:08.563Z,31.4
2023-01-20T07:09:16.808Z,31.4
2023-01-20T07:14:39.251Z,31.4
2023-01-20T07:20:02.720Z,31.4
2023-01-20T07:25:24.959Z,31.4
2023-01-20T07:30:32.165Z,31.3
2023-01-20T07:35:56.418Z,31.3
2023-01-20T07:41:04.919Z,31.3
2023-01-20T07:46:27.954Z,31.3
2023-01-20T07:51:50.523Z,31.3
2023-01-20T07:56:57.719Z,31.2
2023-01-20T08:02:21.282Z,31.2
2023-01-20T08:07:29.653Z,31.2
2023-01-20T08:12:40.407Z,31.1
2023-01-20T08:17:32.919Z,31.1
2023-01-20T08:22:40.288Z,31.1
2023-01-20T08:28:05.531Z,31
2023-01-20T08:33:28.819Z,31
2023-01-20T08:38:52.192Z,31
2023-01-20T08:44:15.482Z,30.9
2023-01-20T08:49:23.143Z,30.9
2023-01-20T08:54:15.337Z,30.9
2023-01-20T08:59:22.631Z,30.9
2023-01-20T09:04:39.485Z,30.9
2023-01-20T09:09:47.808Z,30.8
2023-01-20T09:14:54.995Z,30.8
2023-01-20T09:20:18.311Z,30.8
2023-01-20T09:25:41.279Z,30.7
2023-01-20T09:31:18.051Z,30.7
2023-01-20T09:36:28.620Z,30.6
2023-01-20T09:41:52.342Z,30.4
2023-01-20T09:47:00.007Z,29.5
2023-01-20T09:52:22.542Z,28.7
2023-01-20T09:57:31.252Z,28.2
2023-01-20T10:07:46.919Z,27.5
2023-01-20T10:13:21.743Z,27.3
2023-01-20T10:18:44.361Z,27.1
2023-01-20T10:24:08.830Z,26.9
2023-01-20T10:29:35.288Z,26.8
2023-01-20T10:34:42.732Z,26.8
2023-01-20T10:40:05.922Z,40.6
2023-01-20T10:45:16.128Z,41.5
2023-01-20T10:50:38.872Z,39.1
2023-01-20T10:56:01.988Z,37.2
2023-01-20T11:01:25.370Z,35.7
2023-01-20T11:07:00.441Z,34.4
2023-01-20T11:12:09.023Z,33.4
2023-01-20T11:17:16.927Z,32.6
2023-01-20T11:22:39.934Z,31.8
2023-01-20T11:28:03.273Z,31.2
2023-01-20T11:33:28.905Z,30.6
2023-01-20T11:38:20.872Z,30.1
2023-01-20T11:43:28.212Z,29.8
2023-01-20T11:49:05.650Z,29.4
2023-01-20T11:54:28.565Z,29.1
2023-01-20T11:59:35.383Z,28.8
2023-01-20T12:04:58.662Z,28.5
2023-01-20T12:10:05.294Z,28.3
2023-01-20T12:15:12.938Z,28
2023-01-20T12:26:05.390Z,27.6
2023-01-20T12:31:29.519Z,27.4
2023-01-20T12:36:37.374Z,27.3
2023-01-20T12:42:02.528Z,27.1
2023-01-20T12:47:09.933Z,27
2023-01-20T12:52:33.486Z,26.9
2023-01-20T12:58:12.089Z,26.8
2023-01-20T13:03:34.641Z,26.7
2023-01-20T13:08:58.175Z,26.6
2023-01-20T13:14:30.058Z,26.5
2023-01-20T13:19:37.769Z,26.4
2023-01-20T13:25:15.426Z,26.4
2023-01-20T13:30:38.303Z,26.3
2023-01-20T13:36:02.476Z,26.2
2023-01-20T13:41:25.660Z,26.1
2023-01-20T13:46:48.827Z,26.1
2023-01-20T13:51:57.761Z,26
2023-01-20T13:57:20.954Z,25.9
2023-01-20T14:02:45.661Z,25.8
2023-01-20T14:08:08.004Z,25.8
2023-01-20T14:13:31.070Z,25.8
2023-01-20T14:18:38.672Z,25.8
2023-01-20T14:24:03.866Z,25.7
2023-01-20T14:29:27.533Z,25.6
2023-01-20T14:34:53.486Z,25.6
2023-01-20T14:40:27.049Z,25.6
2023-01-20T14:45:49.942Z,25.5
2023-01-20T14:51:21.242Z,25.6
2023-01-20T14:56:43.753Z,25.6
2023-01-20T15:02:06.655Z,25.5
2023-01-20T15:07:42.574Z,25.2
2023-01-20T15:13:21.140Z,25
2023-01-20T15:18:44.921Z,24.8
2023-01-20T15:24:22.881Z,24.7
2023-01-20T15:29:45.810Z,24.6
2023-01-20T15:34:54.577Z,24.5
2023-01-20T15:40:17.583Z,24.4
2023-01-20T15:45:40.527Z,24.4
2023-01-20T15:51:03.658Z,24.3
2023-01-20T15:56:26.426Z,24.3
2023-01-20T16:01:49.101Z,24.3
2023-01-20T16:07:12.943Z,24.1
2023-01-20T16:12:20.374Z,24.1
2023-01-20T16:17:11.675Z,23.9
2023-01-20T16:22:35.029Z,23.9
2023-01-20T16:27:57.809Z,23.5
2023-01-20T16:33:24.244Z,23.1
2023-01-20T16:38:47.304Z,22.6
2023-01-20T16:44:09.946Z,22.3
2023-01-20T16:49:32.968Z,22
2023-01-20T16:54:55.809Z,21.8
2023-01-20T17:00:20.126Z,21.6
2023-01-20T17:05:43.283Z,21.4
2023-01-20T17:11:07.383Z,21.3
2023-01-20T17:21:38.353Z,21.1
2023-01-20T17:26:45.820Z,20.9
2023-01-20T17:32:09.035Z,20.9
2023-01-20T17:37:32.275Z,20.8
2023-01-20T17:42:56.528Z,20.7
2023-01-20T17:48:21.460Z,20.6
2023-01-20T17:53:29.379Z,20.6
2023-01-20T17:58:44.428Z,20.6
2023-01-20T18:04:07.909Z,20.5
2023-01-20T18:09:16.122Z,20.4
2023-01-20T18:14:25.029Z,20.4
2023-01-20T18:19:34.092Z,20.4
2023-01-20T18:24:45.527Z,20.4
2023-01-20T18:30:09.974Z,20.3
2023-01-20T18:35:35.536Z,20.3
2023-01-20T18:41:01.705Z,20.3
2023-01-20T18:46:31.749Z,20.3
2023-01-20T18:51:59.548Z,20.2
2023-01-20T18:57:26.227Z,20.2
2023-01-20T19:02:56.260Z,20.2
2023-01-20T19:08:23.124Z,20.2
2023-01-20T19:13:34.296Z,20.2
2023-01-20T19:19:02.431Z,20.1
2023-01-20T19:24:18.254Z,20.1
2023-01-20T19:29:47.588Z,20.1
2023-01-20T19:35:20.445Z,20.1
2023-01-20T19:40:38.694Z,20.1
2023-01-20T19:46:20.312Z,20.1
2023-01-20T19:51:55.926Z,20.1
2023-01-20T19:57:13.494Z,20.1
2023-01-20T20:02:34.111Z,20.1
2023-01-20T20:07:56.572Z,20.1
2023-01-20T20:13:29.931Z,20.1
2023-01-20T20:19:02.426Z,20
2023-01-20T20:24:31.682Z,20.2
2023-01-20T20:29:58.089Z,20.6
2023-01-20T20:35:10.107Z,21.6
2023-01-20T20:40:20.190Z,22.7
2023-01-20T20:45:45.829Z,23.7
2023-01-20T20:56:19.387Z,25.9
2023-01-20T21:02:02.282Z,26.9
2023-01-20T21:12:20.753Z,28.5
2023-01-20T21:17:13.978Z,28.9
2023-01-20T21:22:39.066Z,29.1
2023-01-20T21:28:02.139Z,29.3
2023-01-20T21:33:10.647Z,29.4
2023-01-20T21:38:33.860Z,29.5
2023-01-20T21:43:59.360Z,29.6
2023-01-20T21:49:24.981Z,29.6
2023-01-20T21:54:48.674Z,29.7
2023-01-20T21:59:55.920Z,29.7
2023-01-20T22:05:03.355Z,29.8
2023-01-20T22:10:26.126Z,29.8
2023-01-20T22:15:49.012Z,29.8
2023-01-20T22:21:12.237Z,29.8
2023-01-20T22:26:19.956Z,29.8
2023-01-20T22:31:43.116Z,29.9
2023-01-20T22:37:05.876Z,29.9
2023-01-20T22:42:14.294Z,29.8
2023-01-20T22:47:37.156Z,29.8
2023-01-20T22:52:44.376Z,29.9
2023-01-20T22:58:15.486Z,29.9
2023-01-20T23:03:39.372Z,29.8
2023-01-20T23:09:04.829Z,29.8
2023-01-20T23:14:12.924Z,29.8
2023-01-20T23:19:35.619Z,29.8
2023-01-20T23:24:58.106Z,29.8
2023-01-20T23:30:05.238Z,29.8
2023-01-20T23:35:27.891Z,29.8
2023-01-20T23:40:50.852Z,29.7
2023-01-20T23:46:15.719Z,29.7
2023-01-20T23:51:38.395Z,29.7
2023-01-20T23:56:45.730Z,29.7
